sensor_id;sensor_type;location;lat;lon;timestamp;P1;durP1;ratioP1;P2;durP2;ratioP2
65405;SDS011;52016;51.228;-2.322;2022-12-26T00:02:00;16.70;;;2.78;;
65405;SDS011;52016;51.228;-2.322;2022-12-26T00:05:42;13.18;;;2.38;;
65405;SDS011;52016;51.228;-2.322;2022-12-26T00:09:24;10.13;;;2.08;;
65405;SDS011;52016;51.228;-2.322;2022-12-26T00:13:06;17.05;;;2.58;;
65405;SDS011;52016;51.228;-2.322;2022-12-26T00:17:08;15.10;;;2.42;;
65405;SDS011;52016;51.228;-2.322;2022-12-26T00:20:50;15.48;;;3.58;;
65405;SDS011;52016;51.228;-2.322;2022-12-26T00:24:32;15.30;;;2.63;;
65405;SDS011;52016;51.228;-2.322;2022-12-26T00:28:14;10.02;;;2.03;;
65405;SDS011;52016;51.228;-2.322;2022-12-26T00:31:55;5.97;;;1.52;;
65405;SDS011;52016;51.228;-2.322;2022-12-26T00:35:37;5.43;;;1.30;;
65405;SDS011;52016;51.228;-2.322;2022-12-26T00:39:19;2.70;;;1.10;;
65405;SDS011;52016;51.228;-2.322;2022-12-26T00:43:01;11.05;;;2.22;;
65405;SDS011;52016;51.228;-2.322;2022-12-26T00:46:43;4.93;;;1.20;;
65405;SDS011;52016;51.228;-2.322;2022-12-26T00:50:25;7.93;;;2.03;;
65405;SDS011;52016;51.228;-2.322;2022-12-26T00:54:14;6.88;;;1.70;;
65405;SDS011;52016;51.228;-2.322;2022-12-26T00:57:56;10.30;;;1.92;;
65405;SDS011;52016;51.228;-2.322;2022-12-26T01:01:38;11.13;;;1.70;;
65405;SDS011;52016;51.228;-2.322;2022-12-26T01:05:21;8.23;;;1.67;;
65405;SDS011;52016;51.228;-2.322;2022-12-26T01:09:03;11.63;;;1.88;;
65405;SDS011;52016;51.228;-2.322;2022-12-26T01:12:44;7.10;;;2.05;;
65405;SDS011;52016;51.228;-2.322;2022-12-26T01:16:26;4.93;;;1.63;;
65405;SDS011;52016;51.228;-2.322;2022-12-26T01:20:08;10.00;;;1.73;;
65405;SDS011;52016;51.228;-2.322;2022-12-26T01:23:51;7.90;;;1.80;;
65405;SDS011;52016;51.228;-2.322;2022-12-26T01:27:33;11.60;;;1.90;;
65405;SDS011;52016;51.228;-2.322;2022-12-26T01:31:15;9.30;;;1.83;;
65405;SDS011;52016;51.228;-2.322;2022-12-26T01:34:58;11.27;;;1.90;;
65405;SDS011;52016;51.228;-2.322;2022-12-26T01:38:40;10.75;;;2.50;;
65405;SDS011;52016;51.228;-2.322;2022-12-26T01:42:23;11.32;;;2.25;;
65405;SDS011;52016;51.228;-2.322;2022-12-26T01:46:06;11.02;;;2.30;;
65405;SDS011;52016;51.228;-2.322;2022-12-26T01:49:49;3.60;;;1.30;;
65405;SDS011;52016;51.228;-2.322;2022-12-26T01:53:36;4.43;;;1.52;;
65405;SDS011;52016;51.228;-2.322;2022-12-26T01:57:22;11.95;;;2.00;;
65405;SDS011;52016;51.228;-2.322;2022-12-26T02:01:08;8.73;;;2.03;;
65405;SDS011;52016;51.228;-2.322;2022-12-26T02:04:51;5.28;;;1.25;;
65405;SDS011;52016;51.228;-2.322;2022-12-26T02:08:53;4.60;;;1.13;;
65405;SDS011;52016;51.228;-2.322;2022-12-26T02:12:35;5.63;;;1.70;;
65405;SDS011;52016;51.228;-2.322;2022-12-26T02:16:19;4.05;;;1.23;;
65405;SDS011;52016;51.228;-2.322;2022-12-26T02:20:09;10.20;;;1.80;;
65405;SDS011;52016;51.228;-2.322;2022-12-26T02:24:20;6.65;;;1.45;;
65405;SDS011;52016;51.228;-2.322;2022-12-26T02:52:13;6.45;;;2.25;;
65405;SDS011;52016;51.228;-2.322;2022-12-26T02:56:25;9.20;;;2.08;;
65405;SDS011;52016;51.228;-2.322;2022-12-26T03:00:31;6.05;;;2.42;;
65405;SDS011;52016;51.228;-2.322;2022-12-26T03:04:36;5.65;;;2.33;;
65405;SDS011;52016;51.228;-2.322;2022-12-26T03:08:43;6.85;;;2.28;;
65405;SDS011;52016;51.228;-2.322;2022-12-26T03:12:55;4.72;;;2.50;;
65405;SDS011;52016;51.228;-2.322;2022-12-26T03:17:05;8.60;;;2.80;;
65405;SDS011;52016;51.228;-2.322;2022-12-26T03:21:00;6.43;;;2.70;;
65405;SDS011;52016;51.228;-2.322;2022-12-26T03:24:44;7.28;;;2.22;;
65405;SDS011;52016;51.228;-2.322;2022-12-26T03:28:44;7.63;;;2.20;;
65405;SDS011;52016;51.228;-2.322;2022-12-26T03:32:28;2.13;;;1.63;;
65405;SDS011;52016;51.228;-2.322;2022-12-26T03:45:09;5.53;;;1.38;;
65405;SDS011;52016;51.228;-2.322;2022-12-26T03:53:26;2.90;;;1.10;;
65405;SDS011;52016;51.228;-2.322;2022-12-26T03:57:43;1.30;;;0.90;;
65405;SDS011;52016;51.228;-2.322;2022-12-26T04:01:52;2.10;;;1.00;;
65405;SDS011;52016;51.228;-2.322;2022-12-26T04:05:55;2.60;;;1.10;;
65405;SDS011;52016;51.228;-2.322;2022-12-26T04:10:02;1.73;;;0.85;;
65405;SDS011;52016;51.228;-2.322;2022-12-26T04:14:10;3.90;;;1.17;;
65405;SDS011;52016;51.228;-2.322;2022-12-26T04:18:21;4.35;;;0.90;;
65405;SDS011;52016;51.228;-2.322;2022-12-26T04:22:36;0.47;;;0.47;;
65405;SDS011;52016;51.228;-2.322;2022-12-26T04:26:46;4.35;;;0.90;;
65405;SDS011;52016;51.228;-2.322;2022-12-26T04:30:55;1.92;;;0.90;;
65405;SDS011;52016;51.228;-2.322;2022-12-26T04:35:11;2.97;;;1.05;;
65405;SDS011;52016;51.228;-2.322;2022-12-26T04:39:17;3.78;;;0.90;;
65405;SDS011;52016;51.228;-2.322;2022-12-26T04:43:23;3.40;;;0.80;;
65405;SDS011;52016;51.228;-2.322;2022-12-26T04:47:31;3.03;;;0.68;;
65405;SDS011;52016;51.228;-2.322;2022-12-26T04:51:13;1.55;;;0.90;;
65405;SDS011;52016;51.228;-2.322;2022-12-26T04:54:55;1.58;;;0.70;;
65405;SDS011;52016;51.228;-2.322;2022-12-26T04:58:37;2.58;;;1.05;;
65405;SDS011;52016;51.228;-2.322;2022-12-26T05:02:19;2.70;;;1.10;;
65405;SDS011;52016;51.228;-2.322;2022-12-26T05:06:20;4.05;;;1.23;;
65405;SDS011;52016;51.228;-2.322;2022-12-26T05:10:24;5.50;;;1.30;;
65405;SDS011;52016;51.228;-2.322;2022-12-26T05:14:07;3.05;;;1.30;;
65405;SDS011;52016;51.228;-2.322;2022-12-26T05:17:49;3.60;;;0.98;;
65405;SDS011;52016;51.228;-2.322;2022-12-26T05:21:50;5.57;;;1.30;;
65405;SDS011;52016;51.228;-2.322;2022-12-26T05:25:50;2.85;;;1.25;;
65405;SDS011;52016;51.228;-2.322;2022-12-26T05:29:51;5.00;;;1.42;;
65405;SDS011;52016;51.228;-2.322;2022-12-26T05:33:32;3.88;;;1.23;;
65405;SDS011;52016;51.228;-2.322;2022-12-26T05:37:33;4.40;;;1.23;;
65405;SDS011;52016;51.228;-2.322;2022-12-26T05:41:15;3.85;;;1.23;;
65405;SDS011;52016;51.228;-2.322;2022-12-26T05:44:58;6.28;;;1.67;;
65405;SDS011;52016;51.228;-2.322;2022-12-26T05:48:40;3.95;;;1.25;;
65405;SDS011;52016;51.228;-2.322;2022-12-26T05:52:22;5.80;;;1.30;;
65405;SDS011;52016;51.228;-2.322;2022-12-26T05:56:10;4.05;;;1.05;;
65405;SDS011;52016;51.228;-2.322;2022-12-26T05:59:53;6.53;;;1.30;;
65405;SDS011;52016;51.228;-2.322;2022-12-26T06:03:35;7.28;;;1.30;;
65405;SDS011;52016;51.228;-2.322;2022-12-26T06:07:17;4.88;;;1.48;;
65405;SDS011;52016;51.228;-2.322;2022-12-26T06:11:01;6.88;;;1.60;;
65405;SDS011;52016;51.228;-2.322;2022-12-26T06:14:45;4.25;;;1.13;;
65405;SDS011;52016;51.228;-2.322;2022-12-26T06:18:26;5.80;;;1.52;;
65405;SDS011;52016;51.228;-2.322;2022-12-26T06:22:08;6.10;;;1.77;;
65405;SDS011;52016;51.228;-2.322;2022-12-26T06:25:52;5.85;;;1.63;;
65405;SDS011;52016;51.228;-2.322;2022-12-26T06:29:35;4.50;;;1.50;;
65405;SDS011;52016;51.228;-2.322;2022-12-26T06:33:17;6.57;;;1.40;;
65405;SDS011;52016;51.228;-2.322;2022-12-26T06:36:59;6.50;;;1.70;;
65405;SDS011;52016;51.228;-2.322;2022-12-26T06:40:41;6.60;;;1.45;;
65405;SDS011;52016;51.228;-2.322;2022-12-26T06:44:23;5.97;;;1.80;;
65405;SDS011;52016;51.228;-2.322;2022-12-26T06:48:05;7.60;;;1.90;;
65405;SDS011;52016;51.228;-2.322;2022-12-26T06:51:47;10.57;;;1.90;;
65405;SDS011;52016;51.228;-2.322;2022-12-26T06:55:28;8.77;;;1.85;;
65405;SDS011;52016;51.228;-2.322;2022-12-26T06:59:10;5.78;;;1.75;;
65405;SDS011;52016;51.228;-2.322;2022-12-26T07:02:52;6.00;;;1.90;;
65405;SDS011;52016;51.228;-2.322;2022-12-26T07:06:35;8.73;;;2.25;;
65405;SDS011;52016;51.228;-2.322;2022-12-26T07:10:18;8.80;;;1.88;;
65405;SDS011;52016;51.228;-2.322;2022-12-26T07:14:00;12.05;;;2.95;;
65405;SDS011;52016;51.228;-2.322;2022-12-26T07:17:43;6.10;;;2.08;;
65405;SDS011;52016;51.228;-2.322;2022-12-26T07:21:25;6.82;;;2.05;;
65405;SDS011;52016;51.228;-2.322;2022-12-26T07:25:07;11.35;;;2.63;;
65405;SDS011;52016;51.228;-2.322;2022-12-26T07:28:53;7.68;;;1.80;;
65405;SDS011;52016;51.228;-2.322;2022-12-26T07:32:36;4.65;;;1.80;;
65405;SDS011;52016;51.228;-2.322;2022-12-26T07:36:18;8.93;;;1.90;;
65405;SDS011;52016;51.228;-2.322;2022-12-26T07:40:00;8.52;;;2.30;;
65405;SDS011;52016;51.228;-2.322;2022-12-26T07:43:42;7.35;;;2.00;;
65405;SDS011;52016;51.228;-2.322;2022-12-26T07:47:24;13.25;;;2.13;;
65405;SDS011;52016;51.228;-2.322;2022-12-26T07:51:05;5.88;;;1.73;;
65405;SDS011;52016;51.228;-2.322;2022-12-26T07:54:47;7.90;;;2.80;;
65405;SDS011;52016;51.228;-2.322;2022-12-26T07:58:29;6.10;;;2.70;;
65405;SDS011;52016;51.228;-2.322;2022-12-26T08:02:12;9.88;;;2.85;;
65405;SDS011;52016;51.228;-2.322;2022-12-26T08:05:54;9.43;;;2.72;;
65405;SDS011;52016;51.228;-2.322;2022-12-26T08:09:37;10.50;;;3.05;;
65405;SDS011;52016;51.228;-2.322;2022-12-26T08:13:23;9.50;;;3.05;;
65405;SDS011;52016;51.228;-2.322;2022-12-26T08:17:04;10.05;;;2.67;;
65405;SDS011;52016;51.228;-2.322;2022-12-26T08:20:47;16.02;;;3.58;;
65405;SDS011;52016;51.228;-2.322;2022-12-26T08:24:29;12.38;;;2.90;;
65405;SDS011;52016;51.228;-2.322;2022-12-26T08:28:11;6.60;;;2.70;;
65405;SDS011;52016;51.228;-2.322;2022-12-26T08:31:53;12.30;;;2.80;;
65405;SDS011;52016;51.228;-2.322;2022-12-26T08:35:36;15.68;;;2.85;;
65405;SDS011;52016;51.228;-2.322;2022-12-26T08:39:18;8.90;;;2.72;;
65405;SDS011;52016;51.228;-2.322;2022-12-26T08:43:00;10.88;;;2.67;;
65405;SDS011;52016;51.228;-2.322;2022-12-26T08:47:02;14.57;;;3.15;;
65405;SDS011;52016;51.228;-2.322;2022-12-26T08:50:44;15.00;;;3.08;;
65405;SDS011;52016;51.228;-2.322;2022-12-26T08:54:25;13.20;;;3.50;;
65405;SDS011;52016;51.228;-2.322;2022-12-26T08:58:07;20.35;;;3.25;;
65405;SDS011;52016;51.228;-2.322;2022-12-26T09:01:49;14.35;;;3.42;;
65405;SDS011;52016;51.228;-2.322;2022-12-26T09:05:32;7.70;;;2.70;;
65405;SDS011;52016;51.228;-2.322;2022-12-26T09:09:13;10.48;;;2.75;;
65405;SDS011;52016;51.228;-2.322;2022-12-26T09:12:55;12.02;;;3.03;;
65405;SDS011;52016;51.228;-2.322;2022-12-26T09:16:38;14.52;;;3.80;;
65405;SDS011;52016;51.228;-2.322;2022-12-26T09:20:31;11.27;;;3.55;;
65405;SDS011;52016;51.228;-2.322;2022-12-26T09:24:14;14.27;;;3.75;;
65405;SDS011;52016;51.228;-2.322;2022-12-26T09:27:58;17.85;;;4.72;;
65405;SDS011;52016;51.228;-2.322;2022-12-26T09:31:40;19.00;;;4.15;;
65405;SDS011;52016;51.228;-2.322;2022-12-26T09:35:22;11.88;;;3.45;;
65405;SDS011;52016;51.228;-2.322;2022-12-26T09:39:04;12.73;;;3.15;;
65405;SDS011;52016;51.228;-2.322;2022-12-26T09:50:35;8.75;;;2.85;;
65405;SDS011;52016;51.228;-2.322;2022-12-26T09:54:29;13.18;;;3.38;;
65405;SDS011;52016;51.228;-2.322;2022-12-26T09:58:27;19.35;;;3.08;;
65405;SDS011;52016;51.228;-2.322;2022-12-26T10:02:18;12.18;;;2.90;;
65405;SDS011;52016;51.228;-2.322;2022-12-26T10:09:56;16.33;;;3.35;;
65405;SDS011;52016;51.228;-2.322;2022-12-26T10:13:46;15.65;;;3.17;;
65405;SDS011;52016;51.228;-2.322;2022-12-26T10:21:29;12.57;;;3.58;;
65405;SDS011;52016;51.228;-2.322;2022-12-26T10:29:52;16.88;;;3.15;;
65405;SDS011;52016;51.228;-2.322;2022-12-26T10:33:44;9.15;;;2.35;;
65405;SDS011;52016;51.228;-2.322;2022-12-26T10:37:34;14.60;;;2.38;;
65405;SDS011;52016;51.228;-2.322;2022-12-26T10:41:41;10.25;;;2.05;;
65405;SDS011;52016;51.228;-2.322;2022-12-26T10:45:33;10.60;;;3.22;;
65405;SDS011;52016;51.228;-2.322;2022-12-26T10:49:24;12.77;;;2.33;;
65405;SDS011;52016;51.228;-2.322;2022-12-26T10:53:09;8.68;;;2.35;;
65405;SDS011;52016;51.228;-2.322;2022-12-26T10:56:54;13.13;;;2.67;;
65405;SDS011;52016;51.228;-2.322;2022-12-26T11:00:37;9.88;;;2.33;;
65405;SDS011;52016;51.228;-2.322;2022-12-26T11:04:21;4.53;;;1.38;;
65405;SDS011;52016;51.228;-2.322;2022-12-26T11:08:25;5.00;;;1.13;;
65405;SDS011;52016;51.228;-2.322;2022-12-26T11:12:36;5.85;;;1.92;;
65405;SDS011;52016;51.228;-2.322;2022-12-26T11:16:22;5.20;;;1.60;;
65405;SDS011;52016;51.228;-2.322;2022-12-26T11:27:50;3.25;;;1.58;;
65405;SDS011;52016;51.228;-2.322;2022-12-26T11:31:37;5.57;;;2.10;;
65405;SDS011;52016;51.228;-2.322;2022-12-26T11:35:22;3.72;;;1.90;;
65405;SDS011;52016;51.228;-2.322;2022-12-26T11:39:07;5.82;;;2.45;;
65405;SDS011;52016;51.228;-2.322;2022-12-26T11:43:12;6.20;;;3.10;;
65405;SDS011;52016;51.228;-2.322;2022-12-26T11:46:58;3.47;;;2.05;;
65405;SDS011;52016;51.228;-2.322;2022-12-26T11:50:54;6.10;;;4.25;;
65405;SDS011;52016;51.228;-2.322;2022-12-26T11:54:46;7.03;;;2.30;;
65405;SDS011;52016;51.228;-2.322;2022-12-26T11:58:29;3.85;;;1.65;;
65405;SDS011;52016;51.228;-2.322;2022-12-26T12:02:29;7.72;;;2.00;;
65405;SDS011;52016;51.228;-2.322;2022-12-26T12:17:50;6.20;;;1.92;;
65405;SDS011;52016;51.228;-2.322;2022-12-26T12:25:59;4.07;;;1.40;;
65405;SDS011;52016;51.228;-2.322;2022-12-26T12:33:42;4.55;;;1.63;;
65405;SDS011;52016;51.228;-2.322;2022-12-26T12:37:54;4.35;;;1.60;;
65405;SDS011;52016;51.228;-2.322;2022-12-26T12:42:00;3.35;;;1.27;;
65405;SDS011;52016;51.228;-2.322;2022-12-26T12:58:06;4.25;;;1.58;;
65405;SDS011;52016;51.228;-2.322;2022-12-26T13:02:03;5.30;;;2.10;;
65405;SDS011;52016;51.228;-2.322;2022-12-26T13:09:50;4.70;;;1.52;;
65405;SDS011;52016;51.228;-2.322;2022-12-26T13:13:38;3.47;;;1.60;;
65405;SDS011;52016;51.228;-2.322;2022-12-26T13:17:36;5.75;;;1.67;;
65405;SDS011;52016;51.228;-2.322;2022-12-26T13:21:36;3.50;;;1.30;;
65405;SDS011;52016;51.228;-2.322;2022-12-26T13:25:21;7.05;;;2.10;;
65405;SDS011;52016;51.228;-2.322;2022-12-26T13:29:09;2.70;;;1.40;;
65405;SDS011;52016;51.228;-2.322;2022-12-26T13:33:16;7.07;;;1.77;;
65405;SDS011;52016;51.228;-2.322;2022-12-26T13:36:58;4.45;;;1.90;;
65405;SDS011;52016;51.228;-2.322;2022-12-26T13:41:00;5.88;;;1.70;;
65405;SDS011;52016;51.228;-2.322;2022-12-26T13:49:35;5.00;;;1.50;;
65405;SDS011;52016;51.228;-2.322;2022-12-26T13:53:25;5.53;;;1.48;;
65405;SDS011;52016;51.228;-2.322;2022-12-26T14:06:11;4.53;;;2.40;;
65405;SDS011;52016;51.228;-2.322;2022-12-26T14:10:16;2.92;;;1.40;;
65405;SDS011;52016;51.228;-2.322;2022-12-26T14:38:19;4.05;;;3.05;;
65405;SDS011;52016;51.228;-2.322;2022-12-26T14:54:34;4.03;;;2.25;;
65405;SDS011;52016;51.228;-2.322;2022-12-26T15:02:32;3.08;;;2.22;;
65405;SDS011;52016;51.228;-2.322;2022-12-26T15:06:21;5.10;;;3.28;;
65405;SDS011;52016;51.228;-2.322;2022-12-26T15:22:05;4.18;;;2.20;;
65405;SDS011;52016;51.228;-2.322;2022-12-26T15:30:18;6.10;;;3.35;;
65405;SDS011;52016;51.228;-2.322;2022-12-26T15:38:27;5.55;;;3.40;;
65405;SDS011;52016;51.228;-2.322;2022-12-26T16:02:37;4.50;;;1.73;;
65405;SDS011;52016;51.228;-2.322;2022-12-26T16:10:32;3.25;;;2.95;;
65405;SDS011;52016;51.228;-2.322;2022-12-26T16:14:32;5.90;;;2.95;;
65405;SDS011;52016;51.228;-2.322;2022-12-26T16:18:17;3.67;;;2.00;;
65405;SDS011;52016;51.228;-2.322;2022-12-26T16:22:02;3.38;;;2.05;;
65405;SDS011;52016;51.228;-2.322;2022-12-26T16:26:05;5.75;;;2.85;;
65405;SDS011;52016;51.228;-2.322;2022-12-26T16:29:48;3.95;;;2.70;;
65405;SDS011;52016;51.228;-2.322;2022-12-26T16:33:39;8.65;;;4.28;;
65405;SDS011;52016;51.228;-2.322;2022-12-26T16:37:23;6.18;;;3.60;;
65405;SDS011;52016;51.228;-2.322;2022-12-26T16:41:54;8.20;;;3.00;;
65405;SDS011;52016;51.228;-2.322;2022-12-26T16:45:16;3.17;;;2.17;;
65405;SDS011;52016;51.228;-2.322;2022-12-26T16:49:00;3.13;;;2.47;;
65405;SDS011;52016;51.228;-2.322;2022-12-26T16:52:42;9.13;;;6.32;;
65405;SDS011;52016;51.228;-2.322;2022-12-26T16:56:31;8.38;;;5.20;;
65405;SDS011;52016;51.228;-2.322;2022-12-26T17:00:18;7.15;;;4.68;;
65405;SDS011;52016;51.228;-2.322;2022-12-26T17:04:05;9.15;;;3.85;;
65405;SDS011;52016;51.228;-2.322;2022-12-26T17:07:48;9.38;;;3.78;;
65405;SDS011;52016;51.228;-2.322;2022-12-26T17:11:32;5.72;;;2.90;;
65405;SDS011;52016;51.228;-2.322;2022-12-26T17:15:18;5.10;;;3.30;;
65405;SDS011;52016;51.228;-2.322;2022-12-26T17:23:01;9.18;;;6.25;;
65405;SDS011;52016;51.228;-2.322;2022-12-26T17:27:20;10.10;;;5.50;;
65405;SDS011;52016;51.228;-2.322;2022-12-26T17:31:18;9.45;;;5.07;;
65405;SDS011;52016;51.228;-2.322;2022-12-26T17:35:12;9.82;;;5.43;;
65405;SDS011;52016;51.228;-2.322;2022-12-26T17:38:56;13.18;;;5.10;;
65405;SDS011;52016;51.228;-2.322;2022-12-26T17:42:50;10.23;;;3.70;;
65405;SDS011;52016;51.228;-2.322;2022-12-26T17:46:34;8.60;;;2.90;;
65405;SDS011;52016;51.228;-2.322;2022-12-26T17:50:16;16.00;;;9.57;;
65405;SDS011;52016;51.228;-2.322;2022-12-26T17:53:59;14.30;;;5.22;;
65405;SDS011;52016;51.228;-2.322;2022-12-26T17:57:40;13.65;;;5.20;;
65405;SDS011;52016;51.228;-2.322;2022-12-26T18:01:23;9.32;;;4.93;;
65405;SDS011;52016;51.228;-2.322;2022-12-26T18:05:05;18.00;;;11.57;;
65405;SDS011;52016;51.228;-2.322;2022-12-26T18:08:47;13.73;;;8.93;;
65405;SDS011;52016;51.228;-2.322;2022-12-26T18:12:28;7.35;;;4.05;;
65405;SDS011;52016;51.228;-2.322;2022-12-26T18:16:14;7.32;;;4.30;;
65405;SDS011;52016;51.228;-2.322;2022-12-26T18:19:58;15.55;;;6.75;;
65405;SDS011;52016;51.228;-2.322;2022-12-26T18:23:40;11.52;;;4.60;;
65405;SDS011;52016;51.228;-2.322;2022-12-26T18:27:26;10.95;;;3.97;;
65405;SDS011;52016;51.228;-2.322;2022-12-26T18:31:14;11.15;;;5.13;;
65405;SDS011;52016;51.228;-2.322;2022-12-26T18:34:56;10.68;;;3.00;;
65405;SDS011;52016;51.228;-2.322;2022-12-26T18:38:38;8.98;;;4.10;;
65405;SDS011;52016;51.228;-2.322;2022-12-26T18:42:20;9.50;;;4.35;;
65405;SDS011;52016;51.228;-2.322;2022-12-26T18:46:02;13.10;;;3.58;;
65405;SDS011;52016;51.228;-2.322;2022-12-26T18:49:44;7.28;;;2.72;;
65405;SDS011;52016;51.228;-2.322;2022-12-26T18:53:26;7.72;;;2.78;;
65405;SDS011;52016;51.228;-2.322;2022-12-26T18:57:10;8.27;;;2.97;;
65405;SDS011;52016;51.228;-2.322;2022-12-26T19:00:59;8.32;;;3.95;;
65405;SDS011;52016;51.228;-2.322;2022-12-26T19:04:44;16.25;;;5.18;;
65405;SDS011;52016;51.228;-2.322;2022-12-26T19:08:29;13.40;;;4.53;;
65405;SDS011;52016;51.228;-2.322;2022-12-26T19:12:11;10.00;;;5.40;;
65405;SDS011;52016;51.228;-2.322;2022-12-26T19:15:53;14.88;;;7.47;;
65405;SDS011;52016;51.228;-2.322;2022-12-26T19:19:35;13.73;;;6.85;;
65405;SDS011;52016;51.228;-2.322;2022-12-26T19:23:16;10.15;;;4.88;;
65405;SDS011;52016;51.228;-2.322;2022-12-26T19:26:59;9.35;;;4.00;;
65405;SDS011;52016;51.228;-2.322;2022-12-26T19:30:41;9.55;;;3.15;;
65405;SDS011;52016;51.228;-2.322;2022-12-26T19:34:23;9.18;;;3.80;;
65405;SDS011;52016;51.228;-2.322;2022-12-26T19:38:05;7.38;;;3.67;;
65405;SDS011;52016;51.228;-2.322;2022-12-26T19:41:46;10.40;;;4.90;;
65405;SDS011;52016;51.228;-2.322;2022-12-26T19:45:28;10.32;;;3.72;;
65405;SDS011;52016;51.228;-2.322;2022-12-26T19:49:10;8.57;;;3.80;;
65405;SDS011;52016;51.228;-2.322;2022-12-26T19:52:52;9.57;;;4.43;;
65405;SDS011;52016;51.228;-2.322;2022-12-26T19:56:34;10.85;;;5.40;;
65405;SDS011;52016;51.228;-2.322;2022-12-26T20:00:16;10.85;;;5.32;;
65405;SDS011;52016;51.228;-2.322;2022-12-26T20:03:59;7.22;;;4.72;;
65405;SDS011;52016;51.228;-2.322;2022-12-26T20:07:42;6.85;;;3.30;;
65405;SDS011;52016;51.228;-2.322;2022-12-26T20:11:27;10.43;;;6.68;;
65405;SDS011;52016;51.228;-2.322;2022-12-26T20:15:11;8.52;;;4.95;;
65405;SDS011;52016;51.228;-2.322;2022-12-26T20:18:52;8.65;;;5.20;;
65405;SDS011;52016;51.228;-2.322;2022-12-26T20:22:35;7.95;;;3.60;;
65405;SDS011;52016;51.228;-2.322;2022-12-26T20:26:18;8.25;;;3.17;;
65405;SDS011;52016;51.228;-2.322;2022-12-26T20:30:03;7.90;;;3.75;;
65405;SDS011;52016;51.228;-2.322;2022-12-26T20:33:46;5.55;;;3.63;;
65405;SDS011;52016;51.228;-2.322;2022-12-26T20:37:29;6.15;;;3.00;;
65405;SDS011;52016;51.228;-2.322;2022-12-26T20:41:12;7.30;;;3.47;;
65405;SDS011;52016;51.228;-2.322;2022-12-26T20:44:54;7.50;;;4.07;;
65405;SDS011;52016;51.228;-2.322;2022-12-26T20:48:36;6.43;;;3.63;;
65405;SDS011;52016;51.228;-2.322;2022-12-26T20:52:17;8.02;;;3.60;;
65405;SDS011;52016;51.228;-2.322;2022-12-26T20:55:59;9.73;;;5.38;;
65405;SDS011;52016;51.228;-2.322;2022-12-26T20:59:41;6.78;;;4.00;;
65405;SDS011;52016;51.228;-2.322;2022-12-26T21:03:23;5.53;;;3.63;;
65405;SDS011;52016;51.228;-2.322;2022-12-26T21:07:06;11.63;;;6.75;;
65405;SDS011;52016;51.228;-2.322;2022-12-26T21:10:47;7.53;;;3.80;;
65405;SDS011;52016;51.228;-2.322;2022-12-26T21:14:29;5.55;;;3.13;;
65405;SDS011;52016;51.228;-2.322;2022-12-26T21:18:11;6.18;;;2.78;;
65405;SDS011;52016;51.228;-2.322;2022-12-26T21:21:54;8.20;;;3.20;;
65405;SDS011;52016;51.228;-2.322;2022-12-26T21:25:37;6.07;;;3.20;;
65405;SDS011;52016;51.228;-2.322;2022-12-26T21:29:23;5.18;;;2.70;;
65405;SDS011;52016;51.228;-2.322;2022-12-26T21:33:09;7.35;;;3.30;;
65405;SDS011;52016;51.228;-2.322;2022-12-26T21:36:52;7.40;;;3.67;;
65405;SDS011;52016;51.228;-2.322;2022-12-26T21:40:53;15.40;;;6.70;;
65405;SDS011;52016;51.228;-2.322;2022-12-26T21:44:36;7.88;;;4.35;;
65405;SDS011;52016;51.228;-2.322;2022-12-26T21:48:18;13.90;;;4.55;;
65405;SDS011;52016;51.228;-2.322;2022-12-26T21:52:00;8.55;;;4.13;;
65405;SDS011;52016;51.228;-2.322;2022-12-26T21:55:42;6.43;;;2.80;;
65405;SDS011;52016;51.228;-2.322;2022-12-26T21:59:24;11.73;;;3.42;;
65405;SDS011;52016;51.228;-2.322;2022-12-26T22:03:24;8.50;;;3.75;;
65405;SDS011;52016;51.228;-2.322;2022-12-26T22:07:25;9.10;;;4.00;;
65405;SDS011;52016;51.228;-2.322;2022-12-26T22:11:10;6.15;;;2.95;;
65405;SDS011;52016;51.228;-2.322;2022-12-26T22:15:15;8.25;;;2.63;;
65405;SDS011;52016;51.228;-2.322;2022-12-26T22:19:15;8.05;;;2.33;;
65405;SDS011;52016;51.228;-2.322;2022-12-26T22:22:57;9.18;;;2.45;;
65405;SDS011;52016;51.228;-2.322;2022-12-26T22:26:39;6.95;;;2.35;;
65405;SDS011;52016;51.228;-2.322;2022-12-26T22:30:21;9.13;;;2.78;;
65405;SDS011;52016;51.228;-2.322;2022-12-26T22:34:06;11.27;;;2.95;;
65405;SDS011;52016;51.228;-2.322;2022-12-26T22:37:52;5.00;;;2.30;;
65405;SDS011;52016;51.228;-2.322;2022-12-26T22:41:33;4.95;;;2.30;;
65405;SDS011;52016;51.228;-2.322;2022-12-26T22:45:15;9.07;;;2.67;;
65405;SDS011;52016;51.228;-2.322;2022-12-26T22:48:57;12.68;;;6.50;;
65405;SDS011;52016;51.228;-2.322;2022-12-26T22:52:39;15.23;;;6.95;;
65405;SDS011;52016;51.228;-2.322;2022-12-26T22:56:21;10.05;;;3.80;;
65405;SDS011;52016;51.228;-2.322;2022-12-26T23:00:04;9.95;;;4.50;;
65405;SDS011;52016;51.228;-2.322;2022-12-26T23:03:50;6.25;;;2.88;;
65405;SDS011;52016;51.228;-2.322;2022-12-26T23:07:32;13.98;;;3.83;;
65405;SDS011;52016;51.228;-2.322;2022-12-26T23:11:14;6.60;;;2.78;;
65405;SDS011;52016;51.228;-2.322;2022-12-26T23:14:57;4.75;;;2.60;;
65405;SDS011;52016;51.228;-2.322;2022-12-26T23:18:41;6.93;;;2.78;;
65405;SDS011;52016;51.228;-2.322;2022-12-26T23:22:50;8.02;;;2.55;;
65405;SDS011;52016;51.228;-2.322;2022-12-26T23:26:32;9.05;;;2.67;;
65405;SDS011;52016;51.228;-2.322;2022-12-26T23:30:15;9.85;;;2.55;;
65405;SDS011;52016;51.228;-2.322;2022-12-26T23:33:59;6.10;;;2.20;;
65405;SDS011;52016;51.228;-2.322;2022-12-26T23:37:41;9.68;;;2.50;;
65405;SDS011;52016;51.228;-2.322;2022-12-26T23:41:23;6.68;;;2.70;;
65405;SDS011;52016;51.228;-2.322;2022-12-26T23:45:05;5.15;;;2.40;;
65405;SDS011;52016;51.228;-2.322;2022-12-26T23:48:49;6.20;;;2.22;;
65405;SDS011;52016;51.228;-2.322;2022-12-26T23:52:31;6.28;;;2.60;;
65405;SDS011;52016;51.228;-2.322;2022-12-26T23:56:13;6.90;;;2.63;;
65405;SDS011;52016;51.228;-2.322;2022-12-26T23:59:55;8.45;;;2.33;;
